createdAt,value
2023-03-21T00:01:54.251Z,93.45
2023-03-21T00:04:28.347Z,93.34
2023-03-21T00:06:57.484Z,93.07
2023-03-21T00:09:25.322Z,93.01
2023-03-21T00:11:53.032Z,92.30
2023-03-21T00:14:20.962Z,93.30
2023-03-21T00:16:52.686Z,93.10
2023-03-21T00:19:21.960Z,93.58
2023-03-21T00:22:06.578Z,94.30
2023-03-21T00:24:36.183Z,94.15
2023-03-21T00:27:26.851Z,94.02
2023-03-21T00:29:52.469Z,93.62
2023-03-21T00:32:21.759Z,93.77
2023-03-21T00:35:40.747Z,93.60
2023-03-21T00:37:38.249Z,94.47
2023-03-21T00:40:16.307Z,95.08
2023-03-21T00:42:47.520Z,96.31
2023-03-21T00:45:16.661Z,96.87
2023-03-21T00:47:44.641Z,97.36
2023-03-21T00:50:13.149Z,97.77
2023-03-21T00:52:41.504Z,98.88
2023-03-21T00:55:14.689Z,98.69
2023-03-21T00:57:45.300Z,99.30
2023-03-21T01:00:16.177Z,98.86
2023-03-21T01:03:17.672Z,99.32
2023-03-21T01:06:07.214Z,100.00
2023-03-21T01:08:52.308Z,100.00
2023-03-21T01:11:24.626Z,99.93
2023-03-21T01:13:57.811Z,99.27
2023-03-21T01:16:32.732Z,98.47
2023-03-21T01:19:02.142Z,98.30
2023-03-21T01:21:33.469Z,98.55
2023-03-21T01:24:02.245Z,97.58
2023-03-21T01:26:30.489Z,98.31
2023-03-21T01:28:58.384Z,97.92
2023-03-21T01:31:26.241Z,98.73
2023-03-21T01:33:54.123Z,98.63
2023-03-21T01:36:25.844Z,98.93
2023-03-21T01:38:58.919Z,98.93
2023-03-21T01:41:41.909Z,98.77
2023-03-21T01:44:19.678Z,99.17
2023-03-21T01:47:09.919Z,99.68
2023-03-21T01:49:46.447Z,100.00
2023-03-21T01:52:39.298Z,99.72
2023-03-21T01:55:15.572Z,100.00
2023-03-21T01:58:06.667Z,100.00
2023-03-21T02:01:05.147Z,100.00
2023-03-21T02:03:51.039Z,100.00
2023-03-21T02:07:12.192Z,100.00
2023-03-21T02:09:52.213Z,100.00
2023-03-21T02:12:23.123Z,100.00
2023-03-21T02:14:53.449Z,100.00
2023-03-21T02:18:18.570Z,100.00
2023-03-21T02:21:24.624Z,100.00
2023-03-21T02:24:26.058Z,100.00
2023-03-21T02:27:04.585Z,100.00
2023-03-21T02:29:41.205Z,100.00
2023-03-21T02:32:37.043Z,100.00
2023-03-21T02:35:39.136Z,100.00
2023-03-21T02:38:19.877Z,100.00
2023-03-21T02:41:00.434Z,100.00
2023-03-21T02:43:42.701Z,100.00
2023-03-21T02:46:33.248Z,100.00
2023-03-21T02:49:11.299Z,100.00
2023-03-21T02:51:42.924Z,100.00
2023-03-21T02:54:38.435Z,100.00
2023-03-21T02:57:06.959Z,100.00
2023-03-21T02:59:44.388Z,100.00
2023-03-21T03:02:23.295Z,100.00
2023-03-21T03:04:51.165Z,100.00
2023-03-21T03:07:46.702Z,100.00
2023-03-21T03:10:23.534Z,100.00
2023-03-21T03:13:09.919Z,100.00
2023-03-21T03:16:04.607Z,100.00
2023-03-21T03:18:44.326Z,100.00
2023-03-21T03:21:32.875Z,100.00
2023-03-21T03:24:07.951Z,100.00
2023-03-21T03:27:10.095Z,100.00
2023-03-21T03:29:42.810Z,100.00
2023-03-21T03:32:17.593Z,100.00
2023-03-21T03:34:52.144Z,100.00
2023-03-21T03:37:26.432Z,100.00
2023-03-21T03:40:05.222Z,100.00
2023-03-21T03:42:43.556Z,100.00
2023-03-21T03:45:30.695Z,100.00
2023-03-21T03:48:07.820Z,100.00
2023-03-21T03:50:52.189Z,100.00
2023-03-21T03:53:38.229Z,100.00
2023-03-21T03:56:10.019Z,100.00
2023-03-21T03:58:45.569Z,100.00
2023-03-21T04:01:17.232Z,100.00
2023-03-21T04:04:00.825Z,100.00
2023-03-21T04:06:34.955Z,100.00
2023-03-21T04:09:18.762Z,100.00
2023-03-21T04:11:48.907Z,100.00
2023-03-21T04:14:17.202Z,100.00
2023-03-21T04:16:46.854Z,100.00
2023-03-21T04:19:18.524Z,100.00
2023-03-21T04:21:47.618Z,100.00
2023-03-21T04:24:17.458Z,100.00
2023-03-21T04:26:48.942Z,100.00
2023-03-21T04:29:38.241Z,100.00
2023-03-21T04:32:29.244Z,100.00
2023-03-21T04:35:11.443Z,100.00
2023-03-21T04:37:39.481Z,100.00
2023-03-21T04:40:10.840Z,100.00
2023-03-21T04:42:38.843Z,100.00
2023-03-21T04:45:07.653Z,100.00
2023-03-21T04:47:35.594Z,100.00
2023-03-21T04:50:04.256Z,100.00
2023-03-21T04:52:32.022Z,100.00
2023-03-21T04:54:59.880Z,100.00
2023-03-21T04:57:28.090Z,100.00
2023-03-21T04:59:56.372Z,100.00
2023-03-21T05:02:24.642Z,100.00
2023-03-21T05:04:52.688Z,100.00
2023-03-21T05:07:26.496Z,100.00
2023-03-21T05:09:55.730Z,100.00
2023-03-21T05:12:23.494Z,100.00
2023-03-21T05:14:51.361Z,100.00
2023-03-21T05:17:23.407Z,100.00
2023-03-21T05:19:53.060Z,100.00
2023-03-21T05:22:20.969Z,100.00
2023-03-21T05:24:50.445Z,100.00
2023-03-21T05:27:45.501Z,100.00
2023-03-21T05:30:17.602Z,100.00
2023-03-21T05:32:47.866Z,100.00
2023-03-21T05:35:15.828Z,100.00
2023-03-21T05:37:43.856Z,100.00
2023-03-21T05:40:12.514Z,100.00
2023-03-21T05:42:44.323Z,100.00
2023-03-21T05:45:24.024Z,99.74
2023-03-21T05:47:52.700Z,100.00
2023-03-21T05:50:24.027Z,99.77
2023-03-21T05:53:06.470Z,98.83
2023-03-21T05:55:35.388Z,100.00
2023-03-21T05:58:04.943Z,97.32
2023-03-21T06:00:33.964Z,94.15
2023-03-21T06:03:16.859Z,91.34
2023-03-21T06:06:04.133Z,88.94
2023-03-21T06:08:40.236Z,88.28
2023-03-21T06:11:24.924Z,86.65
2023-03-21T06:14:01.010Z,85.38
2023-03-21T06:16:30.017Z,84.27
2023-03-21T06:18:58.945Z,84.77
2023-03-21T06:21:38.988Z,84.74
2023-03-21T06:24:09.234Z,84.80
2023-03-21T06:26:37.817Z,84.22
2023-03-21T06:29:06.748Z,83.02
2023-03-21T06:31:34.838Z,82.96
2023-03-21T06:34:04.763Z,83.23
2023-03-21T06:36:33.977Z,83.81
2023-03-21T06:39:02.211Z,82.94
2023-03-21T06:41:33.763Z,82.72
2023-03-21T06:44:05.702Z,81.87
2023-03-21T06:46:39.771Z,80.53
2023-03-21T06:50:23.811Z,80.14
2023-03-21T07:06:52.105Z,77.98
2023-03-21T07:09:24.822Z,76.85
2023-03-21T07:12:13.041Z,75.32
2023-03-21T07:15:05.069Z,76.03
2023-03-21T07:17:33.334Z,75.63
2023-03-21T07:20:01.692Z,73.89
2023-03-21T07:22:29.753Z,73.28
2023-03-21T07:25:04.744Z,72.42
2023-03-21T07:27:41.240Z,72.12
2023-03-21T07:30:12.107Z,70.65
2023-03-21T07:32:40.187Z,70.40
2023-03-21T07:35:11.787Z,69.44
2023-03-21T07:37:41.061Z,69.49
2023-03-21T07:40:10.510Z,68.51
2023-03-21T07:42:42.619Z,68.60
2023-03-21T07:45:16.573Z,66.50
2023-03-21T07:47:46.816Z,67.83
2023-03-21T07:50:15.371Z,66.63
2023-03-21T07:52:43.419Z,67.32
2023-03-21T07:55:12.141Z,66.77
2023-03-21T07:57:40.779Z,65.51
2023-03-21T08:00:11.034Z,66.33
2023-03-21T08:02:42.905Z,67.55
2023-03-21T08:05:11.694Z,66.97
2023-03-21T08:07:39.376Z,66.58
2023-03-21T08:10:08.408Z,67.05
2023-03-21T08:12:36.485Z,68.50
2023-03-21T08:15:04.661Z,69.00
2023-03-21T08:17:33.925Z,68.63
2023-03-21T08:20:01.953Z,70.30
2023-03-21T08:22:29.790Z,68.68
2023-03-21T08:24:58.119Z,68.56
2023-03-21T08:27:26.239Z,69.51
2023-03-21T08:29:53.937Z,69.88
2023-03-21T08:32:28.565Z,71.08
2023-03-21T08:34:59.148Z,69.54
2023-03-21T08:37:29.381Z,70.85
2023-03-21T08:39:57.936Z,68.80
2023-03-21T08:42:26.702Z,70.26
2023-03-21T08:44:54.471Z,69.93
2023-03-21T08:47:22.350Z,68.88
2023-03-21T08:49:50.044Z,68.85
2023-03-21T08:52:17.721Z,68.12
2023-03-21T08:54:45.839Z,69.51
2023-03-21T08:57:13.571Z,67.82
2023-03-21T08:59:41.377Z,67.24
2023-03-21T09:02:13.690Z,69.61
2023-03-21T09:04:43.997Z,69.95
2023-03-21T09:07:14.433Z,68.48
2023-03-21T09:09:42.387Z,69.83
2023-03-21T09:12:10.372Z,68.25
2023-03-21T09:14:38.096Z,67.83
2023-03-21T09:17:05.868Z,68.16
2023-03-21T09:19:35.142Z,67.31
2023-03-21T09:22:04.802Z,66.79
2023-03-21T09:24:33.106Z,67.98
2023-03-21T09:27:01.192Z,66.00
2023-03-21T09:29:29.513Z,65.91
2023-03-21T09:31:57.783Z,66.36
2023-03-21T09:34:26.608Z,66.73
2023-03-21T09:36:57.428Z,68.58
2023-03-21T09:39:26.522Z,67.62
2023-03-21T09:42:27.520Z,68.71
2023-03-21T09:45:21.952Z,64.84
2023-03-21T09:47:54.172Z,64.35
2023-03-21T09:50:31.761Z,64.64
2023-03-21T09:53:07.353Z,61.85
2023-03-21T09:55:39.955Z,61.76
2023-03-21T09:58:07.985Z,59.48
2023-03-21T10:00:42.243Z,59.56
2023-03-21T10:03:36.607Z,60.38
2023-03-21T10:06:12.462Z,58.77
2023-03-21T10:08:43.244Z,59.88
2023-03-21T10:11:32.506Z,59.33
2023-03-21T10:14:11.477Z,57.07
2023-03-21T10:16:45.977Z,57.27
2023-03-21T10:19:16.937Z,57.17
2023-03-21T10:22:00.297Z,55.53
2023-03-21T10:24:32.056Z,54.63
2023-03-21T10:27:01.802Z,52.58
2023-03-21T10:29:43.403Z,52.29
2023-03-21T10:32:17.558Z,53.42
2023-03-21T10:34:51.090Z,53.71
2023-03-21T10:37:19.467Z,52.76
2023-03-21T10:39:51.733Z,53.80
2023-03-21T10:42:26.404Z,52.07
2023-03-21T10:44:56.752Z,51.10
2023-03-21T10:47:32.531Z,51.43
2023-03-21T10:50:20.557Z,50.21
2023-03-21T10:52:51.472Z,49.72
2023-03-21T10:55:28.936Z,49.39
2023-03-21T10:58:00.436Z,49.29
2023-03-21T11:00:34.346Z,48.67
2023-03-21T11:03:03.815Z,47.56
2023-03-21T11:05:41.642Z,48.27
2023-03-21T11:08:15.549Z,47.38
2023-03-21T11:11:05.270Z,47.74
2023-03-21T11:13:42.042Z,46.32
2023-03-21T11:16:30.187Z,46.59
2023-03-21T11:19:02.565Z,46.69
2023-03-21T11:21:37.048Z,45.51
2023-03-21T11:24:07.658Z,45.95
2023-03-21T11:26:43.591Z,44.71
2023-03-21T11:29:24.296Z,43.99
2023-03-21T11:31:52.426Z,43.69
2023-03-21T11:34:33.080Z,43.13
2023-03-21T11:37:02.921Z,40.31
2023-03-21T11:39:32.915Z,40.65
2023-03-21T11:42:00.792Z,40.41
2023-03-21T11:44:34.757Z,42.50
2023-03-21T11:47:02.922Z,43.04
2023-03-21T11:49:31.442Z,41.73
2023-03-21T11:52:05.319Z,41.65
2023-03-21T11:54:58.020Z,41.83
2023-03-21T11:58:14.181Z,42.13
2023-03-21T12:01:01.728Z,42.53
2023-03-21T12:03:55.018Z,42.17
2023-03-21T12:06:32.175Z,42.48
2023-03-21T12:09:24.154Z,43.62
2023-03-21T12:12:38.299Z,43.12
2023-03-21T12:15:12.788Z,40.41
2023-03-21T12:18:03.580Z,41.48
2023-03-21T12:20:53.811Z,39.80
2023-03-21T12:23:33.462Z,40.88
2023-03-21T12:26:19.870Z,42.06
2023-03-21T12:29:12.650Z,42.25
2023-03-21T12:31:44.345Z,42.78
2023-03-21T12:34:40.188Z,42.67
2023-03-21T12:37:37.561Z,42.72
2023-03-21T12:40:18.153Z,43.61
2023-03-21T12:43:03.351Z,41.84
2023-03-21T12:45:47.387Z,42.23
2023-03-21T12:48:42.097Z,41.77
2023-03-21T12:51:17.802Z,40.92
2023-03-21T12:53:59.521Z,41.12
2023-03-21T12:56:33.095Z,41.26
2023-03-21T12:59:12.901Z,41.66
2023-03-21T13:01:43.914Z,41.01
2023-03-21T13:04:39.117Z,41.43
2023-03-21T13:07:10.942Z,40.71
2023-03-21T13:09:41.419Z,41.73
2023-03-21T13:12:24.937Z,41.51
2023-03-21T13:15:24.410Z,40.98
2023-03-21T13:18:02.411Z,40.80
2023-03-21T13:20:44.417Z,40.48
2023-03-21T13:23:14.068Z,40.02
2023-03-21T13:25:49.728Z,39.98
2023-03-21T13:28:29.533Z,39.48
2023-03-21T13:31:22.884Z,40.03
2023-03-21T13:33:57.890Z,39.06
2023-03-21T13:36:32.521Z,40.78
2023-03-21T13:39:26.303Z,40.27
2023-03-21T13:42:22.453Z,40.57
2023-03-21T13:45:03.542Z,39.76
2023-03-21T13:47:55.931Z,39.58
2023-03-21T13:50:37.468Z,40.16
2023-03-21T13:53:21.962Z,39.52
2023-03-21T13:56:22.272Z,40.45
2023-03-21T13:58:54.468Z,39.48
2023-03-21T14:01:31.307Z,40.57
2023-03-21T14:04:24.135Z,40.04
2023-03-21T14:07:08.645Z,40.16
2023-03-21T14:09:41.061Z,40.41
2023-03-21T14:12:15.064Z,39.93
2023-03-21T14:14:46.685Z,38.64
2023-03-21T14:17:30.558Z,39.77
2023-03-21T14:20:26.781Z,39.49
2023-03-21T14:22:57.255Z,40.05
2023-03-21T14:25:44.377Z,39.35
2023-03-21T14:28:25.075Z,39.22
2023-03-21T14:30:57.113Z,39.14
2023-03-21T14:33:40.438Z,39.22
2023-03-21T14:36:16.253Z,39.53
2023-03-21T14:38:54.319Z,39.74
2023-03-21T14:41:29.985Z,38.98
2023-03-21T14:44:10.746Z,39.48
2023-03-21T14:46:40.314Z,40.69
2023-03-21T14:49:26.347Z,39.35
2023-03-21T14:51:57.541Z,40.26
2023-03-21T14:54:27.648Z,40.71
2023-03-21T14:57:00.948Z,40.55
2023-03-21T14:59:38.982Z,40.45
2023-03-21T15:02:14.646Z,40.45
2023-03-21T15:04:49.254Z,41.27
2023-03-21T15:07:27.827Z,41.93
2023-03-21T15:10:04.128Z,39.94
2023-03-21T15:12:32.970Z,40.54
2023-03-21T15:15:02.321Z,40.99
2023-03-21T15:17:30.971Z,40.85
2023-03-21T15:19:58.984Z,41.08
2023-03-21T15:22:41.076Z,40.77
2023-03-21T15:25:17.752Z,40.73
2023-03-21T15:27:45.917Z,40.63
2023-03-21T15:30:21.818Z,42.20
2023-03-21T15:32:50.135Z,40.66
2023-03-21T15:35:54.505Z,41.49
2023-03-21T15:38:45.435Z,40.71
2023-03-21T15:41:27.054Z,42.41
2023-03-21T15:44:10.439Z,42.15
2023-03-21T15:46:46.549Z,42.02
2023-03-21T15:49:17.124Z,42.92
2023-03-21T15:52:01.497Z,41.77
2023-03-21T15:54:48.378Z,42.07
2023-03-21T15:57:34.552Z,42.50
2023-03-21T16:00:31.549Z,42.02
2023-03-21T16:03:07.741Z,43.39
2023-03-21T16:05:35.853Z,42.77
2023-03-21T16:08:27.740Z,42.86
2023-03-21T16:11:07.403Z,43.07
2023-03-21T16:13:36.655Z,42.92
2023-03-21T16:16:05.156Z,43.45
2023-03-21T16:18:34.889Z,42.60
2023-03-21T16:21:03.401Z,43.23
2023-03-21T16:23:31.852Z,42.85
2023-03-21T16:26:00.339Z,43.04
2023-03-21T16:28:28.271Z,43.11
2023-03-21T16:30:56.242Z,42.72
2023-03-21T16:33:25.598Z,43.37
2023-03-21T16:35:54.364Z,42.24
2023-03-21T16:38:22.458Z,42.88
2023-03-21T16:40:52.142Z,43.98
2023-03-21T16:43:20.739Z,43.29
2023-03-21T16:45:49.198Z,43.70
2023-03-21T16:48:20.135Z,44.58
2023-03-21T16:50:48.988Z,44.55
2023-03-21T16:53:17.483Z,44.19
2023-03-21T16:55:47.139Z,44.38
2023-03-21T16:58:16.237Z,44.58
2023-03-21T17:00:44.767Z,44.76
2023-03-21T17:03:15.857Z,45.05
2023-03-21T17:05:46.202Z,44.83
2023-03-21T17:08:21.120Z,45.33
2023-03-21T17:10:49.633Z,45.35
2023-03-21T17:13:17.842Z,44.65
2023-03-21T17:15:46.976Z,46.45
2023-03-21T17:18:16.221Z,45.82
2023-03-21T17:20:44.653Z,45.68
2023-03-21T17:23:16.115Z,45.48
2023-03-21T17:25:44.252Z,47.34
2023-03-21T17:28:12.481Z,46.77
2023-03-21T17:30:41.229Z,47.13
2023-03-21T17:33:09.689Z,47.11
2023-03-21T17:35:37.876Z,48.38
2023-03-21T17:38:13.466Z,48.58
2023-03-21T17:40:41.812Z,48.04
2023-03-21T17:43:17.281Z,48.45
2023-03-21T17:45:45.974Z,48.69
2023-03-21T17:48:13.866Z,49.27
2023-03-21T17:50:41.897Z,50.11
2023-03-21T17:53:09.679Z,49.41
2023-03-21T17:55:37.738Z,50.48
2023-03-21T17:58:06.405Z,49.98
2023-03-21T18:00:34.271Z,50.19
2023-03-21T18:03:02.685Z,50.81
2023-03-21T18:05:30.915Z,51.27
2023-03-21T18:08:10.299Z,51.69
2023-03-21T18:10:39.543Z,51.88
2023-03-21T18:13:07.603Z,50.52
2023-03-21T18:15:38.110Z,50.26
2023-03-21T18:18:06.750Z,50.93
2023-03-21T18:20:51.209Z,51.77
2023-03-21T18:23:20.057Z,51.88
2023-03-21T18:25:48.459Z,51.88
2023-03-21T18:28:20.463Z,51.81
2023-03-21T18:31:07.884Z,51.47
2023-03-21T18:33:40.463Z,51.74
2023-03-21T18:36:09.746Z,52.22
2023-03-21T18:38:38.204Z,51.74
2023-03-21T18:41:10.534Z,52.27
2023-03-21T18:46:27.722Z,53.02
2023-03-21T18:48:55.865Z,52.98
2023-03-21T18:51:24.314Z,53.01
2023-03-21T18:53:52.611Z,53.32
2023-03-21T18:57:19.567Z,54.39
2023-03-21T18:59:09.462Z,54.07
2023-03-21T19:01:37.848Z,54.09
2023-03-21T19:04:20.725Z,54.96
2023-03-21T19:06:51.784Z,54.36
2023-03-21T19:09:20.085Z,54.37
2023-03-21T19:11:47.973Z,54.44
2023-03-21T19:14:17.963Z,56.26
2023-03-21T19:17:32.636Z,55.77
2023-03-21T19:19:34.491Z,57.31
2023-03-21T19:22:02.504Z,56.41
2023-03-21T19:24:31.296Z,57.52
2023-03-21T19:26:59.264Z,56.66
2023-03-21T19:29:27.212Z,57.65
2023-03-21T19:31:55.278Z,57.25
2023-03-21T19:34:23.274Z,57.00
2023-03-21T19:36:52.494Z,57.92
2023-03-21T19:39:23.001Z,57.76
2023-03-21T19:41:55.261Z,58.14
2023-03-21T19:44:29.941Z,57.97
2023-03-21T19:47:01.712Z,58.34
2023-03-21T19:49:56.470Z,58.74
2023-03-21T19:52:20.747Z,58.96
2023-03-21T19:54:49.208Z,58.27
2023-03-21T19:57:18.596Z,59.27
2023-03-21T19:59:47.674Z,59.22
2023-03-21T20:02:34.587Z,59.21
2023-03-21T20:05:07.979Z,59.99
2023-03-21T20:07:36.151Z,58.83
2023-03-21T20:10:06.128Z,59.20
2023-03-21T20:12:34.162Z,59.47
2023-03-21T20:15:16.712Z,59.49
2023-03-21T20:17:47.067Z,59.79
2023-03-21T20:20:17.722Z,60.03
2023-03-21T20:23:08.126Z,60.72
2023-03-21T20:25:40.679Z,60.77
2023-03-21T20:28:24.750Z,60.52
2023-03-21T20:31:00.709Z,61.08
2023-03-21T20:33:29.837Z,60.72
2023-03-21T20:38:56.305Z,62.10
2023-03-21T20:41:27.672Z,62.01
2023-03-21T20:46:53.813Z,61.99
2023-03-21T20:49:23.265Z,63.00
2023-03-21T20:54:49.911Z,62.39
2023-03-21T20:57:20.181Z,63.28
2023-03-21T20:59:48.425Z,63.42
2023-03-21T21:02:17.139Z,62.25
2023-03-21T21:05:08.145Z,63.00
2023-03-21T21:07:35.451Z,63.77
2023-03-21T21:10:04.685Z,62.82
2023-03-21T21:12:39.767Z,62.43
2023-03-21T21:15:10.078Z,62.86
2023-03-21T21:18:08.747Z,62.50
2023-03-21T21:20:29.620Z,63.02
2023-03-21T21:23:00.288Z,62.44
2023-03-21T21:25:32.297Z,62.74
2023-03-21T21:28:02.086Z,63.47
2023-03-21T21:30:32.771Z,62.76
2023-03-21T21:33:01.405Z,63.03
2023-03-21T21:35:29.439Z,62.79
2023-03-21T21:37:57.552Z,63.25
2023-03-21T21:40:25.833Z,63.07
2023-03-21T21:42:54.027Z,63.70
2023-03-21T21:45:22.638Z,62.58
2023-03-21T21:47:51.452Z,62.98
2023-03-21T21:50:22.117Z,63.44
2023-03-21T21:52:52.909Z,63.36
2023-03-21T21:55:22.220Z,62.93
2023-03-21T21:57:53.508Z,63.09
2023-03-21T22:00:24.026Z,63.08
2023-03-21T22:02:53.093Z,63.41
2023-03-21T22:05:21.524Z,62.72
2023-03-21T22:15:18.857Z,63.64
2023-03-21T22:17:47.060Z,63.56
2023-03-21T22:20:17.163Z,64.11
2023-03-21T22:22:45.475Z,62.76
2023-03-21T22:25:16.054Z,63.94
2023-03-21T22:27:44.597Z,63.91
2023-03-21T22:30:17.492Z,63.62
2023-03-21T22:32:56.483Z,63.38
2023-03-21T22:35:31.340Z,64.12
2023-03-21T22:38:01.079Z,64.15
2023-03-21T22:40:29.127Z,63.79
2023-03-21T22:42:57.081Z,64.78
2023-03-21T22:45:25.006Z,64.40
2023-03-21T22:47:52.986Z,65.60
2023-03-21T22:50:21.067Z,64.98
2023-03-21T22:52:48.993Z,65.62
2023-03-21T22:55:17.401Z,66.96
2023-03-21T22:57:46.531Z,66.10
2023-03-21T23:00:14.961Z,66.41
2023-03-21T23:02:42.952Z,67.09
2023-03-21T23:05:10.860Z,67.23
2023-03-21T23:07:40.202Z,68.46
2023-03-21T23:10:09.166Z,67.57
2023-03-21T23:12:37.703Z,68.09
2023-03-21T23:15:08.224Z,69.70
2023-03-21T23:17:36.394Z,70.41
2023-03-21T23:20:07.976Z,68.75
2023-03-21T23:22:36.282Z,69.60
2023-03-21T23:25:04.488Z,68.46
2023-03-21T23:27:32.394Z,70.58
2023-03-21T23:30:00.490Z,71.73
2023-03-21T23:32:28.445Z,69.40
2023-03-21T23:34:56.354Z,69.43
2023-03-21T23:37:30.203Z,69.73
2023-03-21T23:39:58.180Z,71.66
2023-03-21T23:42:28.908Z,70.94
2023-03-21T23:44:57.357Z,71.92
2023-03-21T23:47:25.351Z,71.66
2023-03-21T23:49:53.246Z,72.00
2023-03-21T23:52:21.491Z,72.62
2023-03-21T23:54:49.409Z,73.16
2023-03-21T23:57:18.204Z,72.48
2023-03-21T23:59:48.826Z,73.90
